• Join FlightAware (Why Join?)
  • Login
  • US Flag 
09:15PM EST


 

Airport Tracker/Info


-or-


 

Live Flight TrackerFlight Track Log ✈ SWA8500 ✈ 23-Apr-2013 ✈ KPAE - KSEA

Flight Track Log - Related Links

Times and Time Zones

All times are in EDT time to prevent confusion due to time zone crossing. See the SWA8500 flight status page for this flight to view local times or setup timezone preferences in your user account.

Time Position Orientation Groundspeed Altitude Reporting Facility
EDT Latitude Longitude Course Direction KTS MPH feet Rate Location/Type
05:28AM 47.9228 -122.2872 359° North 150 173 1,900  Level Seattle Center
05:29AM 47.9631 -122.2878 359° North 210 242 3,200 1,680 Climbing Seattle Center
05:30AM 47.9694 -122.2247 81° East 228 262 5,000 900 Climbing Seattle Center
05:31AM 47.9006 -122.2167 176° South 261 300 5,100  Climbing Seattle Center
05:32AM 47.8189 -122.2094 177° South 255 293 5,100  Level Seattle Center
05:33AM 47.7614 -122.2056 177° South 247 284 5,100  Level Seattle Center
05:34AM 47.6919 -122.2003 177° South 249 287 5,100  Level Seattle Center
05:35AM 47.6206 -122.1950 177° South 257 296 5,100  Level Seattle Center
05:36AM 47.5539 -122.1894 177° South 259 298 5,100 -60 Level Seattle Center
05:37AM 47.4833 -122.1856 178° South 262 302 5,000 -960 Descending Seattle Center
05:38AM 47.4106 -122.1814 178° South 264 304 3,200 -1,500 Descending Seattle Center
05:38AM 47.3781 -122.1814 180° South 267 307 3,000 -300 Descending Seattle Center
05:39AM 47.3597 -122.2217 236° Southwest 231 266 2,900 -420 Descending Seattle Center
05:39AM 47.3594 -122.2572 269° West 185 213 2,600 -840 Descending Seattle Center
05:40AM 47.3639 -122.2878 282° West 152 175 2,100 -1,200 Descending Seattle Center
05:40AM 47.3778 -122.3028 324° Northwest 120 138 1,400 -1,140 Descending Seattle Center
05:41AM 47.3964 -122.3086 348° North 128 147 1,000 -600 Descending Seattle Center
05:41AM 47.4128 -122.3097 357° North 121 139 800 -600 Descending Seattle Center
05:42AM 47.4356 -122.3086 North 130 150 400 -660 Descending Seattle Center
05:44AM 47.4499 -122.3118 290° West  Level Estimated